sensor_id;sensor_type;location;lat;lon;timestamp;P1;durP1;ratioP1;P2;durP2;ratioP2
68050;SDS011;54839;51.364;7.246;2023-08-17T00:01:32;9.60;;;6.10;;
68050;SDS011;54839;51.364;7.246;2023-08-17T00:03:58;6.77;;;6.17;;
68050;SDS011;54839;51.364;7.246;2023-08-17T00:06:23;8.60;;;5.60;;
68050;SDS011;54839;51.364;7.246;2023-08-17T00:08:49;8.70;;;6.50;;
68050;SDS011;54839;51.364;7.246;2023-08-17T00:11:14;8.60;;;7.57;;
68050;SDS011;54839;51.364;7.246;2023-08-17T00:13:40;8.30;;;7.00;;
68050;SDS011;54839;51.364;7.246;2023-08-17T00:16:05;7.03;;;6.30;;
68050;SDS011;54839;51.364;7.246;2023-08-17T00:18:31;7.70;;;7.10;;
68050;SDS011;54839;51.364;7.246;2023-08-17T00:20:56;7.40;;;6.70;;
68050;SDS011;54839;51.364;7.246;2023-08-17T00:23:22;10.03;;;7.90;;
68050;SDS011;54839;51.364;7.246;2023-08-17T00:25:48;9.53;;;8.43;;
68050;SDS011;54839;51.364;7.246;2023-08-17T00:28:13;12.63;;;7.70;;
68050;SDS011;54839;51.364;7.246;2023-08-17T00:30:39;7.73;;;7.13;;
68050;SDS011;54839;51.364;7.246;2023-08-17T00:33:05;9.17;;;7.87;;
68050;SDS011;54839;51.364;7.246;2023-08-17T00:35:31;9.83;;;8.87;;
68050;SDS011;54839;51.364;7.246;2023-08-17T00:37:57;10.07;;;9.13;;
68050;SDS011;54839;51.364;7.246;2023-08-17T00:40:23;12.30;;;9.07;;
68050;SDS011;54839;51.364;7.246;2023-08-17T00:42:49;11.83;;;9.13;;
68050;SDS011;54839;51.364;7.246;2023-08-17T00:45:14;8.73;;;8.03;;
68050;SDS011;54839;51.364;7.246;2023-08-17T00:47:40;9.83;;;8.80;;
68050;SDS011;54839;51.364;7.246;2023-08-17T00:50:07;11.07;;;9.90;;
68050;SDS011;54839;51.364;7.246;2023-08-17T00:52:33;10.23;;;9.23;;
68050;SDS011;54839;51.364;7.246;2023-08-17T00:54:59;9.30;;;8.60;;
68050;SDS011;54839;51.364;7.246;2023-08-17T00:57:26;8.53;;;7.83;;
68050;SDS011;54839;51.364;7.246;2023-08-17T00:59:52;9.63;;;8.50;;
68050;SDS011;54839;51.364;7.246;2023-08-17T01:02:18;10.67;;;7.97;;
68050;SDS011;54839;51.364;7.246;2023-08-17T01:04:44;7.53;;;6.90;;
68050;SDS011;54839;51.364;7.246;2023-08-17T01:07:09;7.13;;;6.53;;
68050;SDS011;54839;51.364;7.246;2023-08-17T01:09:35;6.37;;;5.87;;
68050;SDS011;54839;51.364;7.246;2023-08-17T01:17:33;6.37;;;5.80;;
68050;SDS011;54839;51.364;7.246;2023-08-17T01:20:20;9.30;;;8.50;;
68050;SDS011;54839;51.364;7.246;2023-08-17T01:22:48;9.73;;;6.20;;
68050;SDS011;54839;51.364;7.246;2023-08-17T01:25:15;8.83;;;5.90;;
68050;SDS011;54839;51.364;7.246;2023-08-17T01:27:42;7.43;;;6.73;;
68050;SDS011;54839;51.364;7.246;2023-08-17T01:30:09;7.47;;;6.20;;
68050;SDS011;54839;51.364;7.246;2023-08-17T01:32:42;8.27;;;7.43;;
68050;SDS011;54839;51.364;7.246;2023-08-17T01:35:28;10.17;;;6.97;;
68050;SDS011;54839;51.364;7.246;2023-08-17T01:37:58;7.07;;;6.47;;
68050;SDS011;54839;51.364;7.246;2023-08-17T01:40:28;8.20;;;7.60;;
68050;SDS011;54839;51.364;7.246;2023-08-17T01:42:57;7.30;;;6.60;;
68050;SDS011;54839;51.364;7.246;2023-08-17T01:45:23;7.73;;;7.03;;
68050;SDS011;54839;51.364;7.246;2023-08-17T01:47:49;7.73;;;6.97;;
68050;SDS011;54839;51.364;7.246;2023-08-17T01:50:14;7.47;;;6.77;;
68050;SDS011;54839;51.364;7.246;2023-08-17T01:52:40;7.83;;;6.50;;
68050;SDS011;54839;51.364;7.246;2023-08-17T01:55:06;6.60;;;5.87;;
68050;SDS011;54839;51.364;7.246;2023-08-17T01:57:31;6.20;;;5.70;;
68050;SDS011;54839;51.364;7.246;2023-08-17T01:59:57;5.87;;;5.27;;
68050;SDS011;54839;51.364;7.246;2023-08-17T02:02:23;7.17;;;6.43;;
68050;SDS011;54839;51.364;7.246;2023-08-17T02:04:48;7.07;;;5.83;;
68050;SDS011;54839;51.364;7.246;2023-08-17T02:07:14;7.80;;;7.20;;
68050;SDS011;54839;51.364;7.246;2023-08-17T02:09:39;7.40;;;6.80;;
68050;SDS011;54839;51.364;7.246;2023-08-17T02:12:05;11.40;;;9.83;;
68050;SDS011;54839;51.364;7.246;2023-08-17T02:14:31;8.97;;;8.00;;
68050;SDS011;54839;51.364;7.246;2023-08-17T02:16:56;9.90;;;8.07;;
68050;SDS011;54839;51.364;7.246;2023-08-17T02:19:22;9.47;;;8.63;;
68050;SDS011;54839;51.364;7.246;2023-08-17T02:21:47;11.10;;;10.20;;
68050;SDS011;54839;51.364;7.246;2023-08-17T02:24:13;11.63;;;10.33;;
68050;SDS011;54839;51.364;7.246;2023-08-17T02:26:39;12.17;;;11.07;;
68050;SDS011;54839;51.364;7.246;2023-08-17T02:29:05;14.77;;;13.03;;
68050;SDS011;54839;51.364;7.246;2023-08-17T02:31:30;12.40;;;11.30;;
68050;SDS011;54839;51.364;7.246;2023-08-17T02:33:56;12.97;;;11.77;;
68050;SDS011;54839;51.364;7.246;2023-08-17T02:36:26;14.10;;;12.70;;
68050;SDS011;54839;51.364;7.246;2023-08-17T02:38:51;13.20;;;12.00;;
68050;SDS011;54839;51.364;7.246;2023-08-17T02:41:19;13.67;;;10.93;;
68050;SDS011;54839;51.364;7.246;2023-08-17T02:43:44;11.60;;;10.40;;
68050;SDS011;54839;51.364;7.246;2023-08-17T02:46:10;9.53;;;8.50;;
68050;SDS011;54839;51.364;7.246;2023-08-17T02:48:35;9.00;;;8.10;;
68050;SDS011;54839;51.364;7.246;2023-08-17T02:51:01;9.20;;;8.27;;
68050;SDS011;54839;51.364;7.246;2023-08-17T02:53:26;9.30;;;8.27;;
68050;SDS011;54839;51.364;7.246;2023-08-17T02:55:52;8.20;;;7.60;;
68050;SDS011;54839;51.364;7.246;2023-08-17T02:58:18;10.20;;;9.23;;
68050;SDS011;54839;51.364;7.246;2023-08-17T03:00:44;8.83;;;7.77;;
68050;SDS011;54839;51.364;7.246;2023-08-17T03:03:09;10.87;;;9.87;;
68050;SDS011;54839;51.364;7.246;2023-08-17T03:05:35;11.13;;;10.23;;
68050;SDS011;54839;51.364;7.246;2023-08-17T03:08:00;10.50;;;9.70;;
68050;SDS011;54839;51.364;7.246;2023-08-17T03:10:26;10.40;;;9.50;;
68050;SDS011;54839;51.364;7.246;2023-08-17T03:12:51;11.03;;;9.97;;
68050;SDS011;54839;51.364;7.246;2023-08-17T03:15:17;11.97;;;10.80;;
68050;SDS011;54839;51.364;7.246;2023-08-17T03:17:42;14.80;;;13.30;;
68050;SDS011;54839;51.364;7.246;2023-08-17T03:20:08;13.47;;;12.20;;
68050;SDS011;54839;51.364;7.246;2023-08-17T03:22:34;16.17;;;13.90;;
68050;SDS011;54839;51.364;7.246;2023-08-17T03:25:00;15.90;;;12.70;;
68050;SDS011;54839;51.364;7.246;2023-08-17T03:27:25;14.43;;;12.40;;
68050;SDS011;54839;51.364;7.246;2023-08-17T03:29:51;12.40;;;11.40;;
68050;SDS011;54839;51.364;7.246;2023-08-17T03:32:17;14.03;;;12.77;;
68050;SDS011;54839;51.364;7.246;2023-08-17T03:34:42;15.23;;;13.80;;
68050;SDS011;54839;51.364;7.246;2023-08-17T03:37:08;12.90;;;11.90;;
68050;SDS011;54839;51.364;7.246;2023-08-17T03:39:34;13.70;;;12.40;;
68050;SDS011;54839;51.364;7.246;2023-08-17T03:41:59;13.70;;;12.30;;
68050;SDS011;54839;51.364;7.246;2023-08-17T03:44:25;13.17;;;12.03;;
68050;SDS011;54839;51.364;7.246;2023-08-17T03:46:50;14.17;;;12.40;;
68050;SDS011;54839;51.364;7.246;2023-08-17T03:49:16;12.47;;;11.17;;
68050;SDS011;54839;51.364;7.246;2023-08-17T03:51:41;13.63;;;12.27;;
68050;SDS011;54839;51.364;7.246;2023-08-17T03:54:07;15.93;;;14.27;;
68050;SDS011;54839;51.364;7.246;2023-08-17T03:56:32;14.23;;;12.80;;
68050;SDS011;54839;51.364;7.246;2023-08-17T03:58:58;16.03;;;14.43;;
68050;SDS011;54839;51.364;7.246;2023-08-17T04:01:24;14.73;;;13.33;;
68050;SDS011;54839;51.364;7.246;2023-08-17T04:03:49;14.03;;;12.00;;
68050;SDS011;54839;51.364;7.246;2023-08-17T04:06:15;13.10;;;11.80;;
68050;SDS011;54839;51.364;7.246;2023-08-17T04:08:40;14.60;;;13.10;;
68050;SDS011;54839;51.364;7.246;2023-08-17T04:11:06;16.17;;;12.80;;
68050;SDS011;54839;51.364;7.246;2023-08-17T04:13:32;15.73;;;13.40;;
68050;SDS011;54839;51.364;7.246;2023-08-17T04:15:57;12.03;;;10.83;;
68050;SDS011;54839;51.364;7.246;2023-08-17T04:18:23;13.03;;;11.87;;
68050;SDS011;54839;51.364;7.246;2023-08-17T04:20:49;13.80;;;12.50;;
68050;SDS011;54839;51.364;7.246;2023-08-17T04:23:15;16.60;;;12.20;;
68050;SDS011;54839;51.364;7.246;2023-08-17T04:25:40;15.00;;;13.60;;
68050;SDS011;54839;51.364;7.246;2023-08-17T04:28:06;14.30;;;13.00;;
68050;SDS011;54839;51.364;7.246;2023-08-17T04:30:32;12.00;;;11.00;;
68050;SDS011;54839;51.364;7.246;2023-08-17T04:32:57;17.40;;;13.70;;
68050;SDS011;54839;51.364;7.246;2023-08-17T04:35:23;12.77;;;11.70;;
68050;SDS011;54839;51.364;7.246;2023-08-17T04:37:48;14.20;;;12.50;;
68050;SDS011;54839;51.364;7.246;2023-08-17T04:40:14;13.53;;;12.33;;
68050;SDS011;54839;51.364;7.246;2023-08-17T04:42:40;14.07;;;12.37;;
68050;SDS011;54839;51.364;7.246;2023-08-17T04:45:06;17.70;;;13.83;;
68050;SDS011;54839;51.364;7.246;2023-08-17T04:47:32;18.57;;;14.87;;
68050;SDS011;54839;51.364;7.246;2023-08-17T04:49:57;14.87;;;13.23;;
68050;SDS011;54839;51.364;7.246;2023-08-17T04:52:23;16.77;;;13.07;;
68050;SDS011;54839;51.364;7.246;2023-08-17T04:54:48;14.90;;;13.33;;
68050;SDS011;54839;51.364;7.246;2023-08-17T04:57:14;17.03;;;15.53;;
68050;SDS011;54839;51.364;7.246;2023-08-17T04:59:40;16.67;;;13.87;;
68050;SDS011;54839;51.364;7.246;2023-08-17T05:02:05;17.43;;;15.80;;
68050;SDS011;54839;51.364;7.246;2023-08-17T05:04:31;14.53;;;13.23;;
68050;SDS011;54839;51.364;7.246;2023-08-17T05:06:57;14.70;;;13.33;;
68050;SDS011;54839;51.364;7.246;2023-08-17T05:09:22;16.50;;;14.90;;
68050;SDS011;54839;51.364;7.246;2023-08-17T05:11:48;16.33;;;14.87;;
68050;SDS011;54839;51.364;7.246;2023-08-17T05:14:14;21.90;;;17.23;;
68050;SDS011;54839;51.364;7.246;2023-08-17T05:16:39;15.37;;;11.77;;
68050;SDS011;54839;51.364;7.246;2023-08-17T05:19:05;16.23;;;13.63;;
68050;SDS011;54839;51.364;7.246;2023-08-17T05:21:30;15.37;;;13.90;;
68050;SDS011;54839;51.364;7.246;2023-08-17T05:23:56;14.80;;;13.37;;
68050;SDS011;54839;51.364;7.246;2023-08-17T05:26:22;21.57;;;13.93;;
68050;SDS011;54839;51.364;7.246;2023-08-17T05:28:49;16.57;;;14.73;;
68050;SDS011;54839;51.364;7.246;2023-08-17T05:31:14;19.23;;;17.30;;
68050;SDS011;54839;51.364;7.246;2023-08-17T05:33:40;22.57;;;15.57;;
68050;SDS011;54839;51.364;7.246;2023-08-17T05:36:06;19.17;;;17.27;;
68050;SDS011;54839;51.364;7.246;2023-08-17T05:38:32;18.40;;;16.50;;
68050;SDS011;54839;51.364;7.246;2023-08-17T05:40:58;18.03;;;16.33;;
68050;SDS011;54839;51.364;7.246;2023-08-17T05:43:24;20.93;;;16.63;;
68050;SDS011;54839;51.364;7.246;2023-08-17T05:45:50;16.77;;;15.07;;
68050;SDS011;54839;51.364;7.246;2023-08-17T05:48:17;16.30;;;14.77;;
68050;SDS011;54839;51.364;7.246;2023-08-17T05:50:47;19.20;;;16.07;;
68050;SDS011;54839;51.364;7.246;2023-08-17T05:53:13;16.90;;;15.27;;
68050;SDS011;54839;51.364;7.246;2023-08-17T05:55:38;17.90;;;16.10;;
68050;SDS011;54839;51.364;7.246;2023-08-17T05:58:04;18.63;;;16.83;;
68050;SDS011;54839;51.364;7.246;2023-08-17T06:00:29;19.13;;;15.40;;
68050;SDS011;54839;51.364;7.246;2023-08-17T06:02:55;18.80;;;16.93;;
68050;SDS011;54839;51.364;7.246;2023-08-17T06:05:26;19.93;;;17.43;;
68050;SDS011;54839;51.364;7.246;2023-08-17T06:07:55;18.53;;;16.37;;
68050;SDS011;54839;51.364;7.246;2023-08-17T06:10:21;19.13;;;16.60;;
68050;SDS011;54839;51.364;7.246;2023-08-17T06:12:54;20.53;;;18.20;;
68050;SDS011;54839;51.364;7.246;2023-08-17T06:15:21;20.37;;;17.50;;
68050;SDS011;54839;51.364;7.246;2023-08-17T06:17:47;24.73;;;20.20;;
68050;SDS011;54839;51.364;7.246;2023-08-17T06:20:14;23.87;;;17.33;;
68050;SDS011;54839;51.364;7.246;2023-08-17T06:22:40;23.23;;;20.90;;
68050;SDS011;54839;51.364;7.246;2023-08-17T06:25:06;24.97;;;22.30;;
68050;SDS011;54839;51.364;7.246;2023-08-17T06:27:33;32.50;;;29.17;;
68050;SDS011;54839;51.364;7.246;2023-08-17T06:29:59;31.93;;;28.37;;
68050;SDS011;54839;51.364;7.246;2023-08-17T06:32:25;34.97;;;31.33;;
68050;SDS011;54839;51.364;7.246;2023-08-17T06:34:51;25.33;;;22.73;;
68050;SDS011;54839;51.364;7.246;2023-08-17T06:37:19;21.77;;;19.53;;
68050;SDS011;54839;51.364;7.246;2023-08-17T06:39:44;20.07;;;18.27;;
68050;SDS011;54839;51.364;7.246;2023-08-17T06:42:10;26.73;;;21.60;;
68050;SDS011;54839;51.364;7.246;2023-08-17T06:44:35;20.70;;;17.90;;
68050;SDS011;54839;51.364;7.246;2023-08-17T06:47:01;19.77;;;17.87;;
68050;SDS011;54839;51.364;7.246;2023-08-17T06:49:27;20.93;;;18.50;;
68050;SDS011;54839;51.364;7.246;2023-08-17T06:51:53;21.63;;;17.50;;
68050;SDS011;54839;51.364;7.246;2023-08-17T06:54:18;19.67;;;17.67;;
68050;SDS011;54839;51.364;7.246;2023-08-17T06:56:44;23.33;;;19.00;;
68050;SDS011;54839;51.364;7.246;2023-08-17T06:59:09;16.60;;;15.13;;
68050;SDS011;54839;51.364;7.246;2023-08-17T07:01:35;18.47;;;16.57;;
68050;SDS011;54839;51.364;7.246;2023-08-17T07:04:01;16.63;;;15.10;;
68050;SDS011;54839;51.364;7.246;2023-08-17T07:06:27;16.93;;;15.23;;
68050;SDS011;54839;51.364;7.246;2023-08-17T07:08:53;18.37;;;16.47;;
68050;SDS011;54839;51.364;7.246;2023-08-17T07:11:19;15.90;;;14.40;;
68050;SDS011;54839;51.364;7.246;2023-08-17T07:13:45;14.70;;;13.30;;
68050;SDS011;54839;51.364;7.246;2023-08-17T07:16:10;15.23;;;13.93;;
68050;SDS011;54839;51.364;7.246;2023-08-17T07:18:36;14.93;;;13.43;;
68050;SDS011;54839;51.364;7.246;2023-08-17T07:21:02;15.87;;;14.37;;
68050;SDS011;54839;51.364;7.246;2023-08-17T07:23:27;16.00;;;14.50;;
68050;SDS011;54839;51.364;7.246;2023-08-17T07:25:53;13.97;;;12.57;;
68050;SDS011;54839;51.364;7.246;2023-08-17T07:28:18;15.23;;;13.57;;
68050;SDS011;54839;51.364;7.246;2023-08-17T07:30:44;15.57;;;14.13;;
68050;SDS011;54839;51.364;7.246;2023-08-17T07:33:10;13.43;;;12.33;;
68050;SDS011;54839;51.364;7.246;2023-08-17T07:35:35;14.73;;;13.30;;
68050;SDS011;54839;51.364;7.246;2023-08-17T07:38:01;15.43;;;14.00;;
68050;SDS011;54839;51.364;7.246;2023-08-17T07:40:27;14.50;;;13.20;;
68050;SDS011;54839;51.364;7.246;2023-08-17T07:42:52;13.40;;;12.10;;
68050;SDS011;54839;51.364;7.246;2023-08-17T07:45:18;13.70;;;12.40;;
68050;SDS011;54839;51.364;7.246;2023-08-17T07:47:44;14.50;;;13.20;;
68050;SDS011;54839;51.364;7.246;2023-08-17T07:50:09;14.83;;;13.27;;
68050;SDS011;54839;51.364;7.246;2023-08-17T07:52:35;14.00;;;11.63;;
68050;SDS011;54839;51.364;7.246;2023-08-17T07:55:00;14.10;;;12.80;;
68050;SDS011;54839;51.364;7.246;2023-08-17T07:57:26;15.00;;;13.70;;
68050;SDS011;54839;51.364;7.246;2023-08-17T07:59:52;15.40;;;13.90;;
68050;SDS011;54839;51.364;7.246;2023-08-17T08:02:19;13.83;;;12.50;;
68050;SDS011;54839;51.364;7.246;2023-08-17T08:04:44;15.90;;;13.10;;
68050;SDS011;54839;51.364;7.246;2023-08-17T08:07:10;12.83;;;11.53;;
68050;SDS011;54839;51.364;7.246;2023-08-17T08:09:35;14.83;;;13.23;;
68050;SDS011;54839;51.364;7.246;2023-08-17T08:12:01;17.57;;;15.70;;
68050;SDS011;54839;51.364;7.246;2023-08-17T08:14:27;15.60;;;14.10;;
68050;SDS011;54839;51.364;7.246;2023-08-17T08:16:54;15.47;;;14.00;;
68050;SDS011;54839;51.364;7.246;2023-08-17T08:19:19;17.20;;;13.17;;
68050;SDS011;54839;51.364;7.246;2023-08-17T08:21:45;16.67;;;14.90;;
68050;SDS011;54839;51.364;7.246;2023-08-17T08:24:10;17.20;;;15.47;;
68050;SDS011;54839;51.364;7.246;2023-08-17T08:26:36;17.07;;;15.40;;
68050;SDS011;54839;51.364;7.246;2023-08-17T08:29:01;14.77;;;13.40;;
68050;SDS011;54839;51.364;7.246;2023-08-17T08:31:27;16.43;;;14.90;;
68050;SDS011;54839;51.364;7.246;2023-08-17T08:33:53;16.70;;;13.90;;
68050;SDS011;54839;51.364;7.246;2023-08-17T08:36:19;14.80;;;13.40;;
68050;SDS011;54839;51.364;7.246;2023-08-17T08:38:44;17.43;;;14.40;;
68050;SDS011;54839;51.364;7.246;2023-08-17T08:41:11;17.10;;;15.23;;
68050;SDS011;54839;51.364;7.246;2023-08-17T08:43:37;15.27;;;13.67;;
68050;SDS011;54839;51.364;7.246;2023-08-17T08:46:03;17.33;;;15.70;;
68050;SDS011;54839;51.364;7.246;2023-08-17T08:48:30;15.57;;;14.07;;
68050;SDS011;54839;51.364;7.246;2023-08-17T08:50:56;17.20;;;15.50;;
68050;SDS011;54839;51.364;7.246;2023-08-17T08:53:32;18.53;;;14.23;;
68050;SDS011;54839;51.364;7.246;2023-08-17T08:56:09;17.10;;;13.83;;
68050;SDS011;54839;51.364;7.246;2023-08-17T08:58:37;17.47;;;15.67;;
68050;SDS011;54839;51.364;7.246;2023-08-17T09:01:04;15.20;;;13.80;;
68050;SDS011;54839;51.364;7.246;2023-08-17T09:03:32;17.47;;;14.60;;
68050;SDS011;54839;51.364;7.246;2023-08-17T09:05:58;20.13;;;14.63;;
68050;SDS011;54839;51.364;7.246;2023-08-17T09:08:27;16.40;;;14.90;;
68050;SDS011;54839;51.364;7.246;2023-08-17T09:10:55;18.27;;;16.33;;
68050;SDS011;54839;51.364;7.246;2023-08-17T09:13:20;19.27;;;17.40;;
68050;SDS011;54839;51.364;7.246;2023-08-17T09:15:46;18.47;;;16.53;;
68050;SDS011;54839;51.364;7.246;2023-08-17T09:18:12;16.23;;;14.57;;
68050;SDS011;54839;51.364;7.246;2023-08-17T09:20:42;18.67;;;16.93;;
68050;SDS011;54839;51.364;7.246;2023-08-17T09:23:10;15.63;;;14.13;;
68050;SDS011;54839;51.364;7.246;2023-08-17T09:25:41;17.23;;;14.40;;
68050;SDS011;54839;51.364;7.246;2023-08-17T09:28:08;14.50;;;12.83;;
68050;SDS011;54839;51.364;7.246;2023-08-17T09:33:24;13.27;;;11.93;;
68050;SDS011;54839;51.364;7.246;2023-08-17T09:35:52;13.97;;;12.57;;
68050;SDS011;54839;51.364;7.246;2023-08-17T09:38:19;13.93;;;12.50;;
68050;SDS011;54839;51.364;7.246;2023-08-17T09:40:45;14.63;;;13.20;;
68050;SDS011;54839;51.364;7.246;2023-08-17T09:43:12;14.30;;;12.67;;
68050;SDS011;54839;51.364;7.246;2023-08-17T09:45:39;13.20;;;11.77;;
68050;SDS011;54839;51.364;7.246;2023-08-17T09:48:08;13.37;;;12.07;;
68050;SDS011;54839;51.364;7.246;2023-08-17T09:50:34;10.73;;;9.23;;
68050;SDS011;54839;51.364;7.246;2023-08-17T09:53:01;11.00;;;10.10;;
68050;SDS011;54839;51.364;7.246;2023-08-17T09:55:29;14.37;;;12.13;;
68050;SDS011;54839;51.364;7.246;2023-08-17T09:57:56;12.40;;;11.20;;
68050;SDS011;54839;51.364;7.246;2023-08-17T10:00:22;13.90;;;12.70;;
68050;SDS011;54839;51.364;7.246;2023-08-17T10:02:50;11.47;;;10.40;;
68050;SDS011;54839;51.364;7.246;2023-08-17T10:05:18;11.50;;;10.40;;
68050;SDS011;54839;51.364;7.246;2023-08-17T10:07:51;12.77;;;11.67;;
68050;SDS011;54839;51.364;7.246;2023-08-17T10:10:22;14.77;;;13.37;;
68050;SDS011;54839;51.364;7.246;2023-08-17T10:15:47;13.57;;;12.27;;
68050;SDS011;54839;51.364;7.246;2023-08-17T10:21:06;15.07;;;13.50;;
68050;SDS011;54839;51.364;7.246;2023-08-17T10:23:36;14.63;;;13.23;;
68050;SDS011;54839;51.364;7.246;2023-08-17T10:26:03;14.50;;;13.00;;
68050;SDS011;54839;51.364;7.246;2023-08-17T10:28:33;17.77;;;13.30;;
68050;SDS011;54839;51.364;7.246;2023-08-17T10:30:59;15.23;;;13.83;;
68050;SDS011;54839;51.364;7.246;2023-08-17T10:33:25;19.57;;;15.97;;
68050;SDS011;54839;51.364;7.246;2023-08-17T10:35:51;18.23;;;16.50;;
68050;SDS011;54839;51.364;7.246;2023-08-17T10:38:17;19.80;;;15.93;;
68050;SDS011;54839;51.364;7.246;2023-08-17T10:40:43;19.93;;;16.87;;
68050;SDS011;54839;51.364;7.246;2023-08-17T10:43:09;17.30;;;15.33;;
68050;SDS011;54839;51.364;7.246;2023-08-17T10:45:36;17.80;;;15.00;;
68050;SDS011;54839;51.364;7.246;2023-08-17T10:50:32;16.67;;;15.07;;
68050;SDS011;54839;51.364;7.246;2023-08-17T10:52:59;16.40;;;14.83;;
68050;SDS011;54839;51.364;7.246;2023-08-17T10:55:37;14.10;;;13.00;;
68050;SDS011;54839;51.364;7.246;2023-08-17T10:58:05;14.47;;;13.07;;
68050;SDS011;54839;51.364;7.246;2023-08-17T11:00:36;14.60;;;13.30;;
68050;SDS011;54839;51.364;7.246;2023-08-17T11:03:07;15.20;;;13.60;;
68050;SDS011;54839;51.364;7.246;2023-08-17T11:08:54;14.93;;;12.50;;
68050;SDS011;54839;51.364;7.246;2023-08-17T11:11:06;14.30;;;12.77;;
68050;SDS011;54839;51.364;7.246;2023-08-17T11:13:32;15.00;;;12.50;;
68050;SDS011;54839;51.364;7.246;2023-08-17T11:16:00;12.47;;;11.27;;
68050;SDS011;54839;51.364;7.246;2023-08-17T11:18:26;13.70;;;12.33;;
68050;SDS011;54839;51.364;7.246;2023-08-17T11:20:53;17.37;;;12.20;;
68050;SDS011;54839;51.364;7.246;2023-08-17T11:23:20;14.77;;;12.43;;
68050;SDS011;54839;51.364;7.246;2023-08-17T11:25:46;12.30;;;11.10;;
68050;SDS011;54839;51.364;7.246;2023-08-17T11:28:11;13.23;;;12.13;;
68050;SDS011;54839;51.364;7.246;2023-08-17T11:30:39;13.47;;;12.07;;
68050;SDS011;54839;51.364;7.246;2023-08-17T11:33:06;14.20;;;10.60;;
68050;SDS011;54839;51.364;7.246;2023-08-17T11:35:32;11.07;;;10.17;;
68050;SDS011;54839;51.364;7.246;2023-08-17T11:37:58;13.10;;;12.00;;
68050;SDS011;54839;51.364;7.246;2023-08-17T11:40:24;13.20;;;11.90;;
68050;SDS011;54839;51.364;7.246;2023-08-17T11:42:51;12.13;;;10.63;;
68050;SDS011;54839;51.364;7.246;2023-08-17T11:45:17;11.30;;;10.00;;
68050;SDS011;54839;51.364;7.246;2023-08-17T11:47:43;13.23;;;11.93;;
68050;SDS011;54839;51.364;7.246;2023-08-17T11:50:09;14.73;;;12.80;;
68050;SDS011;54839;51.364;7.246;2023-08-17T11:52:36;13.30;;;12.20;;
68050;SDS011;54839;51.364;7.246;2023-08-17T11:55:03;16.97;;;12.03;;
68050;SDS011;54839;51.364;7.246;2023-08-17T11:57:30;13.93;;;12.53;;
68050;SDS011;54839;51.364;7.246;2023-08-17T11:59:57;13.73;;;12.43;;
68050;SDS011;54839;51.364;7.246;2023-08-17T12:02:24;15.23;;;13.17;;
68050;SDS011;54839;51.364;7.246;2023-08-17T12:04:51;12.80;;;11.70;;
68050;SDS011;54839;51.364;7.246;2023-08-17T12:07:17;17.97;;;12.60;;
68050;SDS011;54839;51.364;7.246;2023-08-17T12:09:43;14.87;;;13.53;;
68050;SDS011;54839;51.364;7.246;2023-08-17T12:12:10;12.57;;;11.33;;
68050;SDS011;54839;51.364;7.246;2023-08-17T12:14:36;12.90;;;11.70;;
68050;SDS011;54839;51.364;7.246;2023-08-17T12:17:02;13.53;;;12.13;;
68050;SDS011;54839;51.364;7.246;2023-08-17T12:19:28;16.93;;;15.23;;
68050;SDS011;54839;51.364;7.246;2023-08-17T12:21:54;17.53;;;15.67;;
68050;SDS011;54839;51.364;7.246;2023-08-17T12:24:23;15.27;;;13.77;;
68050;SDS011;54839;51.364;7.246;2023-08-17T12:26:49;13.30;;;12.00;;
68050;SDS011;54839;51.364;7.246;2023-08-17T12:29:14;13.93;;;12.53;;
68050;SDS011;54839;51.364;7.246;2023-08-17T12:31:40;16.10;;;13.47;;
68050;SDS011;54839;51.364;7.246;2023-08-17T12:34:06;13.20;;;12.00;;
68050;SDS011;54839;51.364;7.246;2023-08-17T12:36:32;13.67;;;11.90;;
68050;SDS011;54839;51.364;7.246;2023-08-17T12:38:58;10.43;;;9.57;;
68050;SDS011;54839;51.364;7.246;2023-08-17T12:41:23;13.93;;;10.47;;
68050;SDS011;54839;51.364;7.246;2023-08-17T12:43:49;11.07;;;10.10;;
68050;SDS011;54839;51.364;7.246;2023-08-17T12:46:15;10.00;;;9.10;;
68050;SDS011;54839;51.364;7.246;2023-08-17T12:48:41;9.80;;;8.90;;
68050;SDS011;54839;51.364;7.246;2023-08-17T12:51:06;10.23;;;9.27;;
68050;SDS011;54839;51.364;7.246;2023-08-17T12:53:32;9.60;;;8.70;;
68050;SDS011;54839;51.364;7.246;2023-08-17T12:55:58;8.13;;;7.47;;
68050;SDS011;54839;51.364;7.246;2023-08-17T12:58:23;8.10;;;7.40;;
68050;SDS011;54839;51.364;7.246;2023-08-17T13:00:49;9.87;;;8.83;;
68050;SDS011;54839;51.364;7.246;2023-08-17T13:03:16;8.23;;;7.53;;
68050;SDS011;54839;51.364;7.246;2023-08-17T13:05:42;9.90;;;9.00;;
68050;SDS011;54839;51.364;7.246;2023-08-17T13:08:08;10.17;;;9.03;;
68050;SDS011;54839;51.364;7.246;2023-08-17T13:10:34;11.50;;;10.43;;
68050;SDS011;54839;51.364;7.246;2023-08-17T13:12:59;10.83;;;9.87;;
68050;SDS011;54839;51.364;7.246;2023-08-17T13:15:25;9.27;;;8.47;;
68050;SDS011;54839;51.364;7.246;2023-08-17T13:17:51;10.90;;;8.60;;
68050;SDS011;54839;51.364;7.246;2023-08-17T13:20:16;10.27;;;9.23;;
68050;SDS011;54839;51.364;7.246;2023-08-17T13:22:42;13.93;;;9.60;;
68050;SDS011;54839;51.364;7.246;2023-08-17T13:25:07;10.40;;;9.50;;
68050;SDS011;54839;51.364;7.246;2023-08-17T13:27:33;10.33;;;9.33;;
68050;SDS011;54839;51.364;7.246;2023-08-17T13:29:59;12.23;;;9.80;;
68050;SDS011;54839;51.364;7.246;2023-08-17T13:32:25;11.20;;;10.20;;
68050;SDS011;54839;51.364;7.246;2023-08-17T13:34:51;14.83;;;13.20;;
68050;SDS011;54839;51.364;7.246;2023-08-17T13:37:16;11.90;;;10.70;;
68050;SDS011;54839;51.364;7.246;2023-08-17T13:39:42;14.13;;;12.07;;
68050;SDS011;54839;51.364;7.246;2023-08-17T13:42:08;15.00;;;13.50;;
68050;SDS011;54839;51.364;7.246;2023-08-17T13:44:34;14.10;;;12.40;;
68050;SDS011;54839;51.364;7.246;2023-08-17T13:46:59;14.97;;;12.03;;
68050;SDS011;54839;51.364;7.246;2023-08-17T13:49:25;16.63;;;14.90;;
68050;SDS011;54839;51.364;7.246;2023-08-17T13:51:52;15.80;;;14.10;;
68050;SDS011;54839;51.364;7.246;2023-08-17T13:54:18;15.43;;;13.97;;
68050;SDS011;54839;51.364;7.246;2023-08-17T13:56:44;14.40;;;13.03;;
68050;SDS011;54839;51.364;7.246;2023-08-17T13:59:09;16.57;;;14.30;;
68050;SDS011;54839;51.364;7.246;2023-08-17T14:01:35;17.67;;;14.60;;
68050;SDS011;54839;51.364;7.246;2023-08-17T14:04:00;16.60;;;14.93;;
68050;SDS011;54839;51.364;7.246;2023-08-17T14:08:38;15.40;;;13.87;;
68050;SDS011;54839;51.364;7.246;2023-08-17T14:11:04;14.70;;;13.10;;
68050;SDS011;54839;51.364;7.246;2023-08-17T14:13:31;17.50;;;13.60;;
68050;SDS011;54839;51.364;7.246;2023-08-17T14:15:57;15.87;;;14.27;;
68050;SDS011;54839;51.364;7.246;2023-08-17T14:18:24;17.67;;;14.87;;
68050;SDS011;54839;51.364;7.246;2023-08-17T14:23:26;15.20;;;12.30;;
68050;SDS011;54839;51.364;7.246;2023-08-17T14:25:52;13.03;;;11.23;;
68050;SDS011;54839;51.364;7.246;2023-08-17T14:28:18;13.10;;;11.83;;
68050;SDS011;54839;51.364;7.246;2023-08-17T14:30:44;15.00;;;13.40;;
68050;SDS011;54839;51.364;7.246;2023-08-17T14:33:10;11.57;;;10.57;;
68050;SDS011;54839;51.364;7.246;2023-08-17T14:35:37;12.63;;;11.37;;
68050;SDS011;54839;51.364;7.246;2023-08-17T14:38:03;11.77;;;10.77;;
68050;SDS011;54839;51.364;7.246;2023-08-17T14:40:29;13.90;;;11.63;;
68050;SDS011;54839;51.364;7.246;2023-08-17T14:42:54;12.67;;;11.47;;
68050;SDS011;54839;51.364;7.246;2023-08-17T14:45:20;13.03;;;11.90;;